Time;durP1;ratioP1;P1;durP2;ratioP2;P2;SDS_P1;SDS_P2;PMS_P1;PMS_P2;Temp;Humidity;BMP_temperature;BMP_pressure;BME280_temperature;BME280_humidity;BME280_pressure;Samples;Min_cycle;Max_cycle;Signal;HPM_P1;HPM_P2
2021/12/03 00:01:19;;;;;;;2.92;1.10;;;;;;;18.40;36.47;100982.44;5091737;28;20107;-65
2021/12/03 00:03:45;;;;;;;2.17;1.00;;;;;;;18.38;36.87;100979.09;5092246;28;20039;-66
2021/12/03 00:06:13;;;;;;;1.83;0.85;;;;;;;18.36;36.74;100977.53;5092149;28;20475;-66
2021/12/03 00:08:38;;;;;;;3.38;1.08;;;;;;;18.34;36.66;100976.81;5091631;28;20492;-66
2021/12/03 00:11:04;;;;;;;3.25;1.20;;;;;;;18.32;36.65;100987.50;5091721;28;20031;-66
2021/12/03 00:13:32;;;;;;;3.03;1.17;;;;;;;18.30;36.76;100979.69;5092100;28;20390;-66
2021/12/03 00:15:59;;;;;;;3.40;1.17;;;;;;;18.28;36.71;100978.16;5091127;28;20059;-66
2021/12/03 00:18:25;;;;;;;2.88;1.23;;;;;;;18.27;36.64;100985.22;5091955;28;20115;-66
2021/12/03 00:20:52;;;;;;;3.58;1.35;;;;;;;18.21;36.64;100975.16;5091918;28;20028;-66
2021/12/03 00:23:20;;;;;;;3.58;1.25;;;;;;;18.23;36.42;100988.22;5091676;28;20502;-66
2021/12/03 00:25:46;;;;;;;3.53;1.20;;;;;;;18.20;36.36;100994.59;5091785;28;20016;-66
2021/12/03 00:28:12;;;;;;;2.60;1.20;;;;;;;18.18;36.47;100990.38;5091213;28;20032;-66
2021/12/03 00:30:37;;;;;;;4.05;1.30;;;;;;;18.16;36.70;100984.41;5091910;28;20073;-65
2021/12/03 00:33:04;;;;;;;3.85;1.38;;;;;;;18.14;36.76;100989.81;5091716;28;20020;-66
2021/12/03 00:35:30;;;;;;;3.80;1.40;;;;;;;18.13;36.62;100988.13;5090961;28;20477;-66
2021/12/03 00:37:59;;;;;;;3.88;1.23;;;;;;;18.08;36.62;100990.28;5091737;28;20135;-67
2021/12/03 00:40:32;;;;;;;3.45;1.30;;;;;;;18.06;36.36;100994.84;5091728;28;20031;-66
2021/12/03 00:42:58;;;;;;;3.13;1.33;;;;;;;18.04;36.61;100994.97;5090750;28;20475;-66
2021/12/03 00:45:24;;;;;;;3.28;1.33;;;;;;;18.02;36.38;100988.94;5092062;28;20056;-65
2021/12/03 00:47:49;;;;;;;3.70;1.30;;;;;;;18.00;36.43;100992.69;5091730;28;20060;-66
2021/12/03 00:50:21;;;;;;;3.15;1.27;;;;;;;17.98;36.72;100990.16;5092790;28;20034;-66
2021/12/03 00:52:47;;;;;;;3.15;1.25;;;;;;;17.97;36.58;100993.75;5095227;28;20028;-66
2021/12/03 00:55:13;;;;;;;3.63;1.40;;;;;;;17.95;36.49;100996.50;5095139;28;20471;-66
2021/12/03 00:57:38;;;;;;;3.25;1.45;;;;;;;17.94;36.51;101001.91;5094578;28;20068;-66
2021/12/03 01:00:08;;;;;;;3.63;1.50;;;;;;;17.91;36.29;101003.00;5095458;28;20115;-65
2021/12/03 01:02:33;;;;;;;3.08;1.40;;;;;;;17.91;36.44;101002.16;5095401;28;20040;-65
2021/12/03 01:04:59;;;;;;;3.63;1.50;;;;;;;17.87;36.36;101001.53;5094405;28;20032;-66
2021/12/03 01:07:24;;;;;;;3.83;1.67;;;;;;;17.87;36.28;101000.69;5095501;28;20047;-66
2021/12/03 01:09:49;;;;;;;3.63;1.55;;;;;;;17.85;36.48;101005.22;5095091;28;20020;-66
2021/12/03 01:12:15;;;;;;;3.90;1.70;;;;;;;17.82;36.76;100998.41;5094475;28;20030;-66
2021/12/03 01:14:41;;;;;;;3.58;1.80;;;;;;;17.81;36.71;101006.44;5094776;28;20284;-66
2021/12/03 01:17:06;;;;;;;4.45;1.55;;;;;;;17.79;36.43;101014.47;5095118;28;20107;-66
2021/12/03 01:19:32;;;;;;;3.90;1.83;;;;;;;17.79;36.63;101016.25;5094218;28;20050;-66
2021/12/03 01:21:57;;;;;;;3.72;1.63;;;;;;;17.75;36.25;101013.00;5094996;28;20051;-66
2021/12/03 01:24:22;;;;;;;4.20;1.60;;;;;;;17.75;36.27;101016.50;5094464;28;20510;-66
2021/12/03 01:26:53;;;;;;;3.92;1.40;;;;;;;17.71;36.67;101011.56;5094661;28;20047;-65
2021/12/03 01:29:19;;;;;;;3.67;1.58;;;;;;;17.72;36.67;101023.78;5095120;28;20008;-66
2021/12/03 01:31:44;;;;;;;4.38;1.73;;;;;;;17.71;36.55;101011.56;5094054;28;20029;-65
2021/12/03 01:34:09;;;;;;;4.07;1.70;;;;;;;17.73;36.74;101022.84;5094913;28;20097;-66
2021/12/03 01:36:35;;;;;;;4.70;1.73;;;;;;;17.73;36.33;101018.38;5094983;28;20047;-66
2021/12/03 01:39:00;;;;;;;4.85;2.00;;;;;;;17.74;36.36;101024.53;5093811;28;20464;-66
2021/12/03 01:41:27;;;;;;;4.20;1.90;;;;;;;17.74;36.32;101012.16;5095023;28;20039;-65
2021/12/03 01:44:01;;;;;;;3.55;1.77;;;;;;;17.77;36.48;101019.84;5094696;28;20028;-65
2021/12/03 01:46:26;;;;;;;3.22;1.70;;;;;;;17.78;36.13;101018.03;5094206;28;20072;-67
2021/12/03 01:48:52;;;;;;;4.18;1.85;;;;;;;17.79;36.38;101006.56;5094111;28;20032;-66
2021/12/03 01:51:19;;;;;;;4.50;1.58;;;;;;;17.79;36.44;101003.91;5094652;28;20024;-66
2021/12/03 01:53:44;;;;;;;3.85;1.60;;;;;;;17.81;36.07;101003.78;5093559;28;20472;-66
2021/12/03 01:56:11;;;;;;;4.65;1.67;;;;;;;17.81;35.91;100995.88;5094341;28;20165;-66
2021/12/03 01:58:38;;;;;;;4.10;2.00;;;;;;;17.80;36.28;101000.34;5094645;28;20028;-66
2021/12/03 02:01:08;;;;;;;4.15;1.85;;;;;;;17.81;36.25;100995.88;5092798;28;20036;-65
2021/12/03 02:03:36;;;;;;;5.63;2.42;;;;;;;17.79;36.38;100998.63;5094146;28;20444;-67
2021/12/03 02:06:03;;;;;;;4.60;2.10;;;;;;;17.80;36.07;101004.75;5093995;28;20036;-66
2021/12/03 02:08:29;;;;;;;4.22;2.10;;;;;;;17.77;36.12;101005.84;5093636;28;20032;-65
2021/12/03 02:10:56;;;;;;;5.60;2.50;;;;;;;17.79;35.91;101016.25;5094097;28;20077;-66
2021/12/03 02:13:22;;;;;;;5.53;2.60;;;;;;;17.79;36.15;101003.09;5094320;28;20034;-66
2021/12/03 02:15:47;;;;;;;5.50;2.70;;;;;;;17.76;36.13;100998.88;5093140;28;20043;-65
2021/12/03 02:18:15;;;;;;;5.90;2.63;;;;;;;17.76;36.04;101017.31;5093794;28;20181;-66
2021/12/03 02:20:45;;;;;;;5.97;3.08;;;;;;;17.76;35.84;101022.59;5092703;28;20127;-65
2021/12/03 02:23:12;;;;;;;6.85;3.25;;;;;;;17.76;35.85;101022.59;5093982;28;20103;-66
2021/12/03 02:25:37;;;;;;;6.55;3.50;;;;;;;17.75;36.03;101021.78;5094026;28;20028;-66
2021/12/03 02:28:03;;;;;;;7.72;3.97;;;;;;;17.75;35.97;101015.63;5093032;28;20020;-66
2021/12/03 02:30:28;;;;;;;6.85;3.83;;;;;;;17.73;36.42;101013.13;5093907;28;20050;-66
2021/12/03 02:32:54;;;;;;;7.00;3.85;;;;;;;17.75;36.23;101013.00;5093638;28;20407;-66
2021/12/03 02:35:22;;;;;;;7.95;4.18;;;;;;;17.75;35.66;101003.31;5092902;28;20498;-66
2021/12/03 02:37:49;;;;;;;8.13;4.10;;;;;;;17.76;35.95;100996.25;5093678;28;20031;-66
2021/12/03 02:40:15;;;;;;;6.15;3.50;;;;;;;17.77;36.12;101004.03;5093808;28;20082;-67
2021/12/03 02:42:42;;;;;;;6.28;3.58;;;;;;;17.75;35.73;100998.03;5092844;28;20036;-66
2021/12/03 02:45:09;;;;;;;5.88;3.55;;;;;;;17.77;36.02;100998.75;5093708;28;20052;-66
2021/12/03 02:47:35;;;;;;;7.53;3.72;;;;;;;17.77;35.79;100997.94;5093688;28;20039;-66
2021/12/03 02:50:00;;;;;;;6.45;3.60;;;;;;;17.78;35.63;100999.59;5092432;28;20024;-65
2021/12/03 02:52:26;;;;;;;6.60;3.60;;;;;;;17.76;35.99;100996.25;5093730;28;20471;-65
2021/12/03 02:54:51;;;;;;;7.57;4.13;;;;;;;17.76;35.82;100994.44;5093188;28;20036;-66
2021/12/03 02:57:17;;;;;;;7.72;3.65;;;;;;;17.76;35.89;100996.25;5092769;28;20495;-65
2021/12/03 02:59:42;;;;;;;6.38;3.35;;;;;;;17.76;35.85;100994.44;5093177;28;20032;-66
2021/12/03 03:02:08;;;;;;;6.80;3.40;;;;;;;17.76;35.85;100990.97;5093411;28;20032;-65
2021/12/03 03:04:33;;;;;;;7.10;3.60;;;;;;;17.77;35.72;100996.13;5092534;28;20032;-66
2021/12/03 03:07:00;;;;;;;6.90;3.40;;;;;;;17.77;36.03;100990.03;5092994;28;20079;-65
2021/12/03 03:09:25;;;;;;;6.60;3.53;;;;;;;17.79;36.09;100988.09;5092983;28;20043;-66
2021/12/03 03:11:51;;;;;;;6.40;3.50;;;;;;;17.79;36.12;100988.09;5092311;28;20051;-66
2021/12/03 03:14:16;;;;;;;7.05;3.60;;;;;;;17.80;36.01;100986.28;5093106;28;20371;-66
2021/12/03 03:16:42;;;;;;;7.18;3.45;;;;;;;17.78;36.05;100978.50;5092673;28;20024;-65
2021/12/03 03:19:16;;;;;;;6.10;3.70;;;;;;;17.82;35.87;100973.84;5092467;28;20052;-66
2021/12/03 03:21:43;;;;;;;7.35;4.03;;;;;;;17.80;36.02;100976.59;5092724;28;20077;-66
2021/12/03 03:24:09;;;;;;;7.60;3.97;;;;;;;17.80;35.76;100973.97;5092450;28;20399;-66
2021/12/03 03:26:37;;;;;;;8.52;5.65;;;;;;;17.79;35.65;100977.56;5093171;28;20035;-66
2021/12/03 03:29:04;;;;;;;7.53;4.50;;;;;;;17.81;35.73;100980.91;5092788;28;20382;-66
2021/12/03 03:31:31;;;;;;;6.32;3.75;;;;;;;17.80;35.95;100975.75;5092343;28;20024;-66
2021/12/03 03:33:56;;;;;;;7.55;4.60;;;;;;;17.79;35.82;100979.34;5092875;28;20364;-67
2021/12/03 03:36:22;;;;;;;7.43;4.47;;;;;;;17.81;35.70;100988.81;5092952;28;20123;-66
2021/12/03 03:38:47;;;;;;;7.25;4.53;;;;;;;17.81;36.13;100988.81;5092031;28;20039;-66
2021/12/03 03:41:13;;;;;;;6.90;4.47;;;;;;;17.80;35.74;100987.16;5092858;28;20020;-66
2021/12/03 03:43:39;;;;;;;7.35;4.32;;;;;;;17.81;35.80;100987.97;5092825;28;20265;-66
2021/12/03 03:46:04;;;;;;;7.57;4.20;;;;;;;17.83;35.70;100986.06;5091833;28;20073;-67
2021/12/03 03:48:29;;;;;;;8.05;4.32;;;;;;;17.82;36.09;100973.84;5092957;28;20032;-66
2021/12/03 03:50:55;;;;;;;7.67;4.03;;;;;;;17.81;35.76;100978.25;5092474;28;20040;-66
2021/12/03 03:53:20;;;;;;;8.98;5.10;;;;;;;17.83;35.92;100978.16;5091995;28;20273;-66
2021/12/03 03:55:45;;;;;;;7.63;4.85;;;;;;;17.83;35.48;100976.38;5092412;28;20028;-65
2021/12/03 03:58:11;;;;;;;8.02;4.30;;;;;;;17.83;35.65;100983.41;5092797;28;20047;-66
2021/12/03 04:00:41;;;;;;;7.78;4.88;;;;;;;17.82;35.58;100969.41;5091978;28;20077;-66
2021/12/03 04:03:07;;;;;;;7.57;4.45;;;;;;;17.82;35.55;100964.13;5092649;28;20031;-66
2021/12/03 04:05:32;;;;;;;9.65;4.97;;;;;;;17.83;36.00;100960.56;5092931;28;20051;-65
2021/12/03 04:07:58;;;;;;;8.75;4.97;;;;;;;17.83;35.94;100962.31;5091383;28;20020;-65
2021/12/03 04:10:24;;;;;;;8.10;4.80;;;;;;;17.83;36.17;100955.28;5092637;28;20036;-65
2021/12/03 04:12:49;;;;;;;10.02;5.13;;;;;;;17.85;35.93;100958.63;5092246;28;20498;-65
2021/12/03 04:15:16;;;;;;;7.65;4.15;;;;;;;17.86;35.74;100954.19;5091697;28;20027;-65
2021/12/03 04:17:42;;;;;;;8.10;4.65;;;;;;;17.84;35.80;100940.28;5092176;28;20062;-65
2021/12/03 04:20:10;;;;;;;6.75;4.35;;;;;;;17.85;35.92;100944.59;5091955;28;20024;-66
2021/12/03 04:22:35;;;;;;;7.18;4.07;;;;;;;17.85;35.76;100945.44;5092408;28;20406;-65
2021/12/03 04:25:03;;;;;;;8.07;4.40;;;;;;;17.85;35.82;100950.72;5093367;28;20111;-67
2021/12/03 04:27:28;;;;;;;8.25;4.75;;;;;;;17.85;35.83;100947.22;5095562;28;20098;-67
2021/12/03 04:29:54;;;;;;;7.18;4.30;;;;;;;17.84;35.62;100951.66;5095897;28;20453;-66
2021/12/03 04:32:22;;;;;;;7.90;4.70;;;;;;;17.84;35.61;100949.03;5096407;28;20023;-66
2021/12/03 04:34:47;;;;;;;9.88;4.90;;;;;;;17.84;35.76;100943.75;5095179;28;20032;-67
2021/12/03 04:37:12;;;;;;;9.33;4.80;;;;;;;17.84;36.09;100937.66;5096209;28;20166;-67
2021/12/03 04:39:38;;;;;;;7.60;4.72;;;;;;;17.84;35.91;100943.75;5095987;28;20748;-66
2021/12/03 04:42:04;;;;;;;8.52;4.20;;;;;;;17.84;35.86;100949.03;5095401;28;20081;-66
2021/12/03 04:44:30;;;;;;;8.73;4.63;;;;;;;17.85;35.79;100963.03;5095827;28;20036;-65
2021/12/03 04:46:55;;;;;;;7.45;4.28;;;;;;;17.85;35.70;100969.16;5095721;28;20020;-66
2021/12/03 04:49:20;;;;;;;7.22;4.25;;;;;;;17.86;35.65;100970.81;5095143;28;20383;-65
2021/12/03 04:51:46;;;;;;;8.00;4.23;;;;;;;17.86;35.82;100962.09;5095526;28;20036;-65
2021/12/03 04:54:11;;;;;;;6.45;4.32;;;;;;;17.84;35.59;100954.28;5095803;28;20762;-65
2021/12/03 04:56:36;;;;;;;8.48;4.72;;;;;;;17.84;35.64;100964.84;5094853;28;20027;-65
2021/12/03 04:59:02;;;;;;;6.93;3.87;;;;;;;17.84;35.74;100950.84;5095312;28;20097;-65
2021/12/03 05:01:29;;;;;;;7.95;4.53;;;;;;;17.84;35.96;100956.94;5095419;28;20303;-66
2021/12/03 05:03:54;;;;;;;7.80;4.28;;;;;;;17.84;35.95;100943.75;5094657;28;20074;-66
2021/12/03 05:06:29;;;;;;;7.07;4.07;;;;;;;17.83;36.07;100942.09;5095658;28;20032;-67
2021/12/03 05:08:55;;;;;;;7.05;3.97;;;;;;;17.86;36.12;100943.63;5094995;28;20028;-66
2021/12/03 05:11:20;;;;;;;6.78;3.83;;;;;;;17.85;36.15;100927.00;5094618;28;20115;-66
2021/12/03 05:13:46;;;;;;;7.82;3.80;;;;;;;17.86;36.09;100935.72;5094761;28;20103;-66
2021/12/03 05:16:11;;;;;;;5.95;3.65;;;;;;;17.86;36.11;100928.66;5095286;28;20106;-66
2021/12/03 05:18:36;;;;;;;7.55;3.55;;;;;;;17.85;36.13;100921.72;5094246;28;20036;-66
2021/12/03 05:21:03;;;;;;;6.63;3.63;;;;;;;17.87;35.66;100918.97;5095015;28;20482;-66
2021/12/03 05:23:31;;;;;;;6.22;3.78;;;;;;;17.88;35.60;100925.91;5094415;28;20032;-66
2021/12/03 05:25:57;;;;;;;6.30;3.65;;;;;;;17.86;35.64;100925.19;5094831;28;20031;-66
2021/12/03 05:28:24;;;;;;;7.22;3.33;;;;;;;17.86;35.73;100925.19;5094852;28;20020;-65
2021/12/03 05:30:49;;;;;;;6.57;3.22;;;;;;;17.87;36.34;100924.22;5093937;28;20502;-65
2021/12/03 05:33:15;;;;;;;6.72;3.20;;;;;;;17.86;36.11;100928.66;5095208;28;20028;-65
2021/12/03 05:35:40;;;;;;;5.95;3.25;;;;;;;17.86;36.30;100933.09;5094564;28;20036;-65
2021/12/03 05:38:06;;;;;;;5.25;2.92;;;;;;;17.87;35.79;100932.13;5093463;28;20545;-65
2021/12/03 05:40:31;;;;;;;5.53;2.85;;;;;;;17.88;36.01;100939.09;5094813;28;20016;-65
2021/12/03 05:42:57;;;;;;;6.40;3.10;;;;;;;17.88;36.32;100937.31;5094347;28;20103;-65
2021/12/03 05:45:25;;;;;;;6.28;3.05;;;;;;;17.87;35.88;100930.34;5094090;28;20082;-65
2021/12/03 05:47:51;;;;;;;6.47;3.10;;;;;;;17.88;36.00;100941.75;5094439;28;20066;-65
2021/12/03 05:50:17;;;;;;;7.07;2.95;;;;;;;17.87;35.79;100943.50;5094732;28;20063;-65
2021/12/03 05:52:43;;;;;;;5.65;2.63;;;;;;;17.88;35.69;100953.16;5093542;28;20106;-65
2021/12/03 05:55:10;;;;;;;5.97;3.00;;;;;;;17.89;35.89;100949.53;5094448;28;20024;-66
2021/12/03 05:57:36;;;;;;;7.95;3.00;;;;;;;17.87;35.91;100940.06;5094363;28;20460;-66
2021/12/03 06:00:04;;;;;;;5.90;2.75;;;;;;;17.87;35.80;100945.31;5093262;28;20028;-66
2021/12/03 06:02:30;;;;;;;5.88;2.60;;;;;;;17.88;35.93;100936.47;5094465;28;20059;-66
2021/12/03 06:04:55;;;;;;;5.95;2.63;;;;;;;17.88;37.03;100939.97;5094098;28;20055;-66
2021/12/03 06:07:20;;;;;;;6.80;3.05;;;;;;;17.90;37.59;100934.56;5093700;28;20510;-66
2021/12/03 06:09:46;;;;;;;6.57;2.92;;;;;;;17.91;37.71;100936.22;5093994;28;20027;-66
2021/12/03 06:12:11;;;;;;;5.60;2.20;;;;;;;17.92;37.70;100937.91;5094128;28;20114;-66
2021/12/03 06:14:36;;;;;;;5.68;2.47;;;;;;;17.93;37.81;100927.25;5093528;28;20040;-66
2021/12/03 06:17:02;;;;;;;5.10;2.10;;;;;;;17.94;37.73;100928.06;5093942;28;20042;-66
2021/12/03 06:19:27;;;;;;;6.82;2.55;;;;;;;17.97;37.88;100932.28;5093853;28;20048;-66
2021/12/03 06:21:53;;;;;;;5.50;2.70;;;;;;;17.99;37.92;100923.28;5092964;28;20036;-66
2021/12/03 06:24:19;;;;;;;5.88;2.60;;;;;;;18.00;38.00;100919.69;5093956;28;20345;-66
2021/12/03 06:26:44;;;;;;;6.32;2.50;;;;;;;18.02;37.93;100925.66;5093025;28;20031;-66
2021/12/03 06:29:10;;;;;;;4.80;2.15;;;;;;;18.04;38.04;100921.13;5093982;28;20024;-66
2021/12/03 06:31:35;;;;;;;5.45;2.20;;;;;;;18.05;38.15;100922.78;5093923;28;20024;-66
2021/12/03 06:34:01;;;;;;;6.68;2.45;;;;;;;18.06;37.75;100919.19;5092911;28;20031;-66
2021/12/03 06:36:26;;;;;;;5.35;2.13;;;;;;;18.06;37.91;100916.56;5093665;28;20109;-66
2021/12/03 06:38:52;;;;;;;4.47;2.05;;;;;;;18.07;38.09;100912.97;5093458;28;20032;-66
2021/12/03 06:41:17;;;;;;;5.35;2.45;;;;;;;18.09;38.04;100921.59;5092889;28;20047;-66
2021/12/03 06:43:43;;;;;;;5.93;2.15;;;;;;;18.10;38.16;100918.00;5093242;28;20028;-66
2021/12/03 06:46:08;;;;;;;5.50;2.30;;;;;;;18.09;37.87;100918.94;5093600;28;20032;-66
2021/12/03 06:48:33;;;;;;;6.23;2.10;;;;;;;18.15;38.04;100917.63;5092531;28;20023;-65
2021/12/03 06:50:59;;;;;;;5.13;2.38;;;;;;;18.16;38.01;100918.47;5093153;28;20286;-65
2021/12/03 06:53:28;;;;;;;6.47;2.10;;;;;;;18.16;37.87;100918.47;5093425;28;20036;-65
2021/12/03 06:56:05;;;;;;;5.28;2.00;;;;;;;18.18;38.15;100920.00;5092292;28;20020;-67
2021/12/03 06:58:31;;;;;;;5.50;2.10;;;;;;;18.18;37.89;100924.44;5093313;28;20434;-66
2021/12/03 07:00:56;;;;;;;4.35;2.00;;;;;;;18.17;38.05;100928.91;5092985;28;20106;-66
2021/12/03 07:03:22;;;;;;;4.50;2.03;;;;;;;18.19;38.09;100928.78;5092674;28;20042;-66
2021/12/03 07:05:47;;;;;;;4.90;1.92;;;;;;;18.19;38.29;100934.06;5092967;28;20364;-66
2021/12/03 07:08:13;;;;;;;5.07;1.92;;;;;;;18.18;37.95;100925.28;5093104;28;20073;-66
2021/12/03 07:10:38;;;;;;;5.47;1.80;;;;;;;18.21;38.10;100924.22;5092281;28;20039;-66
2021/12/03 07:13:04;;;;;;;7.32;2.22;;;;;;;18.21;38.16;100913.66;5093124;28;20028;-66
2021/12/03 07:15:30;;;;;;;4.53;1.88;;;;;;;18.23;37.78;100920.50;5093082;28;20028;-66
2021/12/03 07:17:55;;;;;;;4.88;1.75;;;;;;;18.23;37.82;100923.13;5091832;28;20039;-66
2021/12/03 07:20:23;;;;;;;4.55;1.80;;;;;;;18.23;37.73;100919.63;5093059;28;20495;-66
2021/12/03 07:22:49;;;;;;;4.82;2.13;;;;;;;18.23;37.82;100911.72;5092549;28;20053;-66
2021/12/03 07:25:15;;;;;;;4.85;1.92;;;;;;;18.24;37.74;100903.69;5092128;28;20101;-66
2021/12/03 07:27:40;;;;;;;4.07;1.70;;;;;;;18.24;37.86;100897.59;5092810;28;20054;-64
2021/12/03 07:30:07;;;;;;;4.88;1.67;;;;;;;18.23;38.08;100895.88;5092055;28;20035;-66
2021/12/03 07:32:33;;;;;;;4.97;1.88;;;;;;;18.24;37.87;100890.50;5092632;28;20480;-66
2021/12/03 07:34:59;;;;;;;6.38;2.40;;;;;;;18.23;37.72;100888.84;5092125;28;20481;-67
2021/12/03 07:37:25;;;;;;;5.43;1.83;;;;;;;18.23;37.89;100887.97;5091892;28;20020;-66
2021/12/03 07:39:53;;;;;;;5.40;1.83;;;;;;;18.24;37.99;100895.78;5092263;28;20031;-68
2021/12/03 07:42:18;;;;;;;3.83;1.50;;;;;;;18.24;38.02;100901.03;5092802;28;20059;-66
2021/12/03 07:44:46;;;;;;;4.45;1.52;;;;;;;18.25;37.94;100907.19;5091664;28;20059;-67
2021/12/03 07:47:12;;;;;;;6.30;2.08;;;;;;;18.26;36.49;100908.84;5093093;28;20493;-67
2021/12/03 07:49:39;;;;;;;7.97;2.38;;;;;;;18.22;36.72;100905.63;5092631;28;20059;-67
2021/12/03 07:52:05;;;;;;;6.00;2.25;;;;;;;18.24;36.82;100898.41;5091700;28;20027;-67
2021/12/03 07:54:31;;;;;;;5.65;1.92;;;;;;;18.25;37.25;100900.09;5092676;28;20036;-65
2021/12/03 07:56:56;;;;;;;4.55;1.90;;;;;;;18.28;36.79;100899.03;5092320;28;20028;-68
2021/12/03 07:59:22;;;;;;;4.63;1.65;;;;;;;18.28;36.85;100899.03;5091795;28;20034;-66
2021/12/03 08:01:47;;;;;;;5.28;2.03;;;;;;;18.30;36.61;100905.00;5096010;28;20062;-66
2021/12/03 08:04:13;;;;;;;5.93;1.98;;;;;;;18.32;36.67;100903.06;5096413;28;20077;-66
2021/12/03 08:06:40;;;;;;;5.80;2.70;;;;;;;18.33;36.76;100890.72;5095593;28;20024;-65
2021/12/03 08:09:10;;;;;;;6.00;1.92;;;;;;;18.33;37.14;100894.19;5096607;28;20024;-65
2021/12/03 08:11:38;;;;;;;4.95;1.67;;;;;;;18.34;37.28;100898.53;5096701;28;20355;-66
2021/12/03 08:14:03;;;;;;;5.57;1.90;;;;;;;18.36;36.99;100895.72;5095357;28;20024;-64
2021/12/03 08:16:29;;;;;;;6.50;1.70;;;;;;;18.37;37.21;100897.41;5096294;28;20067;-63
2021/12/03 08:18:54;;;;;;;6.43;1.80;;;;;;;18.41;37.52;100898.84;5095728;28;20501;-62
2021/12/03 08:21:19;;;;;;;4.72;1.52;;;;;;;18.42;37.36;100888.19;5095403;28;20086;-63
2021/12/03 08:23:47;;;;;;;4.70;1.70;;;;;;;18.42;37.97;100882.91;5096130;28;20123;-63
2021/12/03 08:26:13;;;;;;;5.22;2.00;;;;;;;18.45;37.46;100877.38;5095774;28;20035;-66
2021/12/03 08:28:38;;;;;;;4.35;2.00;;;;;;;18.47;37.90;100896.56;5096250;28;20075;-65
2021/12/03 08:31:03;;;;;;;4.93;1.80;;;;;;;18.48;37.56;100887.69;5095837;28;20058;-66
2021/12/03 08:33:28;;;;;;;4.03;1.55;;;;;;;18.51;37.85;100888.38;5095149;28;20350;-64
2021/12/03 08:35:54;;;;;;;5.13;1.47;;;;;;;18.51;37.73;100885.75;5095508;28;20499;-64
2021/12/03 08:38:19;;;;;;;6.82;1.70;;;;;;;18.50;37.89;100898.13;5096012;28;20273;-64
2021/12/03 08:40:44;;;;;;;5.80;1.70;;;;;;;18.51;37.67;100889.22;5094870;28;20428;-65
2021/12/03 08:43:10;;;;;;;4.55;1.42;;;;;;;18.52;37.76;100892.69;5095953;28;20016;-64
2021/12/03 08:45:37;;;;;;;4.97;1.80;;;;;;;18.52;37.80;100887.41;5031219;28;20049;-64
2021/12/03 08:48:04;;;;;;;5.47;2.00;;;;;;;18.52;37.47;100895.31;5025881;28;20106;-64
2021/12/03 08:50:32;;;;;;;4.93;1.67;;;;;;;18.52;37.30;100884.75;5095296;28;20475;-66
2021/12/03 08:55:39;;;;;;;6.20;1.80;;;;;;;18.52;37.59;100880.34;5095273;28;20044;-65
2021/12/03 08:58:05;;;;;;;5.60;1.70;;;;;;;18.54;37.81;100874.94;5095453;28;20038;-67
2021/12/03 09:00:33;;;;;;;5.40;1.60;;;;;;;18.53;37.82;100865.34;5095808;28;20037;-65
2021/12/03 09:02:58;;;;;;;6.03;1.75;;;;;;;18.52;37.54;100866.28;5095070;28;20410;-65
2021/12/03 09:05:28;;;;;;;5.32;1.90;;;;;;;18.54;37.83;100872.31;5096181;28;20045;-65
2021/12/03 09:07:54;;;;;;;4.25;1.60;;;;;;;18.54;37.73;100864.38;5095688;28;20097;-66
2021/12/03 09:10:19;;;;;;;5.22;1.73;;;;;;;18.53;37.46;100874.06;5095225;28;20027;-65
2021/12/03 09:12:44;;;;;;;5.55;1.70;;;;;;;18.54;37.86;100886.31;5095589;28;20448;-64
2021/12/03 09:15:13;;;;;;;6.38;1.73;;;;;;;18.55;37.33;100877.44;5101385;28;20067;-67
2021/12/03 09:17:48;;;;;;;4.57;1.60;;;;;;;18.56;37.52;100883.56;5105722;28;20031;-66
2021/12/03 09:22:45;;;;;;;5.10;1.58;;;;;;;18.56;37.91;100876.47;5098958;28;20353;-65
2021/12/03 09:25:15;;;;;;;5.30;1.92;;;;;;;18.56;35.81;100865.09;5104400;28;20102;-66
2021/12/03 09:27:41;;;;;;;5.85;1.95;;;;;;;18.51;36.43;100857.53;5102196;28;20390;-66
2021/12/03 09:30:08;;;;;;;5.88;1.90;;;;;;;18.46;36.68;100859.72;5097427;28;20103;-67
2021/12/03 09:32:34;;;;;;;5.90;1.92;;;;;;;18.46;37.46;100857.91;5096562;28;20024;-66
2021/12/03 09:35:01;;;;;;;4.18;1.65;;;;;;;18.48;37.71;100861.28;5096073;28;20418;-65
2021/12/03 09:37:26;;;;;;;5.00;1.98;;;;;;;18.48;37.54;100861.28;5096030;28;20391;-67
2021/12/03 09:39:52;;;;;;;5.68;1.52;;;;;;;18.50;38.01;100863.81;5097215;28;20471;-66
2021/12/03 09:42:21;;;;;;;5.40;2.10;;;;;;;18.52;37.68;100861.88;5095240;28;20031;-67
2021/12/03 09:44:50;;;;;;;6.43;1.70;;;;;;;18.53;37.66;100852.13;5094252;28;20024;-66
2021/12/03 09:47:16;;;;;;;5.63;1.70;;;;;;;18.54;37.97;100849.38;5094991;28;20035;-66
2021/12/03 09:49:42;;;;;;;4.75;1.45;;;;;;;18.55;37.79;100852.84;5094702;28;20473;-65
2021/12/03 09:53:04;;;;;;;5.13;1.95;;;;;;;18.56;38.11;100838.69;5094173;28;20063;-67
2021/12/03 09:55:02;;;;;;;4.45;1.85;;;;;;;18.54;37.12;100833.53;5088722;28;20526;-69
2021/12/03 09:57:36;;;;;;;5.95;1.63;;;;;;;18.53;37.29;100831.84;5095884;28;20032;-68
2021/12/03 10:06:10;;;;;;;5.47;1.90;;;;;;;18.51;37.39;100823.22;5094436;28;20052;-67
2021/12/03 10:09:20;;;;;;;5.35;1.52;;;;;;;18.53;37.14;100821.28;5094837;28;20036;-66
2021/12/03 10:11:40;;;;;;;5.40;1.55;;;;;;;18.55;37.58;100813.25;5097764;28;20043;-68
2021/12/03 10:14:24;;;;;;;4.57;2.05;;;;;;;18.57;37.56;100816.63;5098727;28;20032;-66
2021/12/03 10:19:55;;;;;;;4.25;1.48;;;;;;;18.59;37.49;100793.56;5093426;28;20044;-66
2021/12/03 10:22:38;;;;;;;5.35;1.48;;;;;;;18.59;37.49;100785.66;5093670;28;20321;-66
2021/12/03 10:44:04;;;;;;;5.32;1.75;;;;;;;18.59;37.13;100741.59;5093629;28;20036;-67
2021/12/03 11:25:56;;;;;;;5.78;1.67;;;;;;;19.54;35.41;100661.19;5092127;28;20036;-61
2021/12/03 11:44:40;;;;;;;6.57;1.80;;;;;;;19.24;36.31;100627.78;5091828;28;20107;-67
2021/12/03 13:07:22;;;;;;;4.03;1.67;;;;;;;18.94;41.74;100492.19;5095141;28;20135;-64
2021/12/03 13:09:43;;;;;;;4.35;1.42;;;;;;;18.90;42.55;100496.09;5094058;28;20188;-64
2021/12/03 13:15:34;;;;;;;5.43;1.92;;;;;;;18.79;42.57;100486.47;5093890;28;20392;-64
2021/12/03 14:00:12;;;;;;;3.75;1.40;;;;;;;18.52;43.82;100430.84;5094066;28;20067;-65
2021/12/03 14:17:30;;;;;;;3.67;1.20;;;;;;;18.47;43.86;100421.56;5093546;28;20055;-64
2021/12/03 14:40:15;;;;;;;5.35;1.75;;;;;;;18.43;44.15;100417.53;5092864;28;20020;-64
2021/12/03 14:48:36;;;;;;;4.10;1.30;;;;;;;18.45;44.71;100420.03;5094624;28;20038;-65
2021/12/03 14:54:13;;;;;;;3.35;1.20;;;;;;;18.46;45.25;100416.44;5092866;28;20103;-65
2021/12/03 14:56:27;;;;;;;3.47;1.05;;;;;;;18.46;45.10;100419.06;5092549;28;20040;-65
2021/12/03 14:59:15;;;;;;;4.63;1.48;;;;;;;18.45;45.10;100412.97;5092977;28;20028;-65
2021/12/03 15:01:46;;;;;;;2.80;1.20;;;;;;;18.47;44.89;100421.56;5092423;28;20039;-65
2021/12/03 15:06:49;;;;;;;4.45;1.52;;;;;;;18.47;44.55;100410.19;5092965;28;20035;-65
2021/12/03 15:09:31;;;;;;;2.83;1.05;;;;;;;18.49;44.76;100416.97;5091929;28;20379;-65
2021/12/03 15:22:48;;;;;;;2.60;0.90;;;;;;;18.53;45.10;100419.34;5092435;28;20097;-67
2021/12/03 15:33:01;;;;;;;3.72;1.17;;;;;;;18.54;45.28;100405.19;5093166;28;20459;-66
2021/12/03 15:38:19;;;;;;;3.20;1.30;;;;;;;18.53;45.19;100399.06;5092726;28;20036;-66
2021/12/03 15:57:23;;;;;;;2.90;1.00;;;;;;;18.52;45.11;100381.56;5091458;28;20059;-63
2021/12/03 16:08:12;;;;;;;3.17;1.05;;;;;;;18.52;45.41;100371.03;5091938;28;20035;-64
2021/12/03 16:14:02;;;;;;;3.33;0.98;;;;;;;18.51;45.77;100364.06;5092269;28;20043;-64
2021/12/03 16:22:10;;;;;;;3.50;0.93;;;;;;;18.52;46.14;100346.41;5093995;28;20031;-65
2021/12/03 16:31:05;;;;;;;4.82;1.20;;;;;;;18.52;45.56;100346.41;5096136;28;20038;-64
2021/12/03 16:54:20;;;;;;;8.93;2.65;;;;;;;18.48;46.07;100327.41;5100022;28;20467;-65
2021/12/03 16:56:48;;;;;;;11.15;2.70;;;;;;;18.49;46.47;100321.16;5094778;28;20107;-65
2021/12/03 16:59:14;;;;;;;7.30;2.97;;;;;;;18.49;46.58;100318.53;5095203;28;20139;-63
2021/12/03 17:01:46;;;;;;;13.27;3.00;;;;;;;18.49;46.33;100323.81;5094058;28;20157;-65
2021/12/03 17:04:43;;;;;;;9.68;2.80;;;;;;;18.50;46.85;100333.38;5094829;28;20028;-66
2021/12/03 17:57:44;;;;;;;5.03;1.85;;;;;;;18.76;46.87;100227.22;5093405;28;20023;-66